Time;durP1;ratioP1;P1;durP2;ratioP2;P2;SDS_P1;SDS_P2;PMS_P1;PMS_P2;Temp;Humidity;BMP_temperature;BMP_pressure;BME280_temperature;BME280_humidity;BME280_pressure;Samples;Min_cycle;Max_cycle;Signal;HPM_P1;HPM_P2
2021/03/28 00:00:18;;;;;;;11.82;1.40;;;6.30;99.90;;;;;;6755201;88;20208;-76
2021/03/28 00:10:39;;;;;;;10.05;1.80;;;6.30;99.90;;;;;;6757950;87;20540;-76
2021/03/28 00:20:41;;;;;;;8.18;1.80;;;6.20;99.90;;;;;;6751735;87;20318;-76
2021/03/28 00:30:42;;;;;;;8.30;1.45;;;6.30;99.90;;;;;;6758830;88;20332;-76
2021/03/28 00:40:44;;;;;;;8.82;1.65;;;6.40;99.90;;;;;;6755984;88;20362;-76
2021/03/28 00:50:53;;;;;;;6.05;1.35;;;6.50;99.90;;;;;;6765793;87;20873;-77
2021/03/28 01:01:19;;;;;;;3.40;1.08;;;6.60;99.90;;;;;;6760222;88;20196;-76
2021/03/28 01:11:42;;;;;;;8.57;1.70;;;6.70;99.90;;;;;;6759647;88;20213;-77
2021/03/28 01:22:14;;;;;;;7.28;1.50;;;6.70;99.90;;;;;;6759520;87;20177;-77
2021/03/28 01:32:27;;;;;;;7.37;1.30;;;6.70;99.90;;;;;;6749918;88;20227;-76
2021/03/28 01:42:41;;;;;;;8.13;1.37;;;6.70;99.90;;;;;;6743980;87;20208;-76
2021/03/28 01:52:51;;;;;;;7.72;1.50;;;6.80;99.90;;;;;;6751447;88;20184;-77
2021/03/28 02:03:29;;;;;;;5.00;1.40;;;6.90;99.90;;;;;;6753883;87;20185;-76
2021/03/28 02:14:20;;;;;;;4.25;1.48;;;6.90;99.90;;;;;;6752402;87;20244;-76
2021/03/28 02:24:36;;;;;;;9.38;1.70;;;7.00;99.90;;;;;;6745377;87;20255;-77
2021/03/28 02:35:01;;;;;;;8.73;1.42;;;6.80;99.90;;;;;;6738674;88;20602;-76
2021/03/28 02:45:18;;;;;;;6.12;1.30;;;6.80;99.90;;;;;;6753013;88;20226;-76
2021/03/28 02:55:47;;;;;;;4.37;0.98;;;6.90;99.90;;;;;;6750542;88;20247;-76
2021/03/28 03:05:54;;;;;;;5.70;1.20;;;7.00;99.90;;;;;;6757486;87;20191;-76
2021/03/28 03:15:57;;;;;;;5.68;1.35;;;6.90;99.90;;;;;;6749625;88;20724;-76
2021/03/28 03:26:34;;;;;;;6.75;1.70;;;6.80;99.90;;;;;;6754899;87;20192;-76
2021/03/28 03:36:40;;;;;;;7.50;1.40;;;6.70;99.90;;;;;;6755158;88;20184;-76
2021/03/28 03:47:00;;;;;;;6.10;1.10;;;6.70;99.90;;;;;;6755174;87;20210;-76
2021/03/28 03:57:08;;;;;;;6.47;1.02;;;6.80;99.90;;;;;;6756335;87;20195;-76
2021/03/28 04:07:31;;;;;;;5.32;1.45;;;6.80;99.90;;;;;;6753180;88;20199;-76
2021/03/28 04:18:10;;;;;;;5.18;1.33;;;6.80;99.90;;;;;;6755121;87;20177;-76
2021/03/28 04:28:22;;;;;;;6.62;1.40;;;6.80;99.90;;;;;;6756987;88;20243;-77
2021/03/28 04:38:54;;;;;;;3.65;1.00;;;6.80;99.90;;;;;;6759644;87;20291;-76
2021/03/28 04:49:23;;;;;;;7.82;1.37;;;6.70;99.90;;;;;;6757256;88;20204;-76
2021/03/28 04:59:39;;;;;;;4.80;1.23;;;6.70;99.90;;;;;;6752645;88;20220;-76
2021/03/28 05:09:39;;;;;;;4.78;1.20;;;6.70;99.90;;;;;;6759853;88;20250;-75
2021/03/28 05:20:22;;;;;;;7.93;1.30;;;6.90;99.90;;;;;;6757892;88;20270;-76
2021/03/28 05:31:00;;;;;;;4.82;1.20;;;7.00;99.90;;;;;;6766171;88;20267;-76
2021/03/28 05:41:37;;;;;;;7.70;1.55;;;7.00;99.90;;;;;;6755326;88;20340;-76
2021/03/28 05:52:04;;;;;;;4.93;1.23;;;7.20;99.90;;;;;;6756117;88;20182;-75
2021/03/28 06:02:31;;;;;;;4.50;1.10;;;7.40;99.90;;;;;;6752791;87;20232;-76
2021/03/28 06:12:46;;;;;;;7.10;1.35;;;7.60;99.90;;;;;;6751139;87;20212;-76
2021/03/28 06:23:26;;;;;;;3.92;1.33;;;7.70;99.90;;;;;;6747681;88;20189;-75
2021/03/28 06:34:04;;;;;;;4.93;1.33;;;7.90;99.90;;;;;;6756594;88;20762;-75
2021/03/28 06:44:40;;;;;;;3.95;1.12;;;8.10;99.90;;;;;;6730814;88;20245;-76
2021/03/28 06:55:01;;;;;;;8.13;1.50;;;8.30;99.90;;;;;;6738148;88;20212;-76
2021/03/28 07:05:41;;;;;;;9.77;1.40;;;8.50;99.90;;;;;;6745332;88;20242;-76
2021/03/28 07:16:03;;;;;;;6.55;1.20;;;8.70;99.90;;;;;;6755811;88;20698;-75
2021/03/28 07:26:25;;;;;;;8.73;1.52;;;8.90;99.90;;;;;;6753741;88;20410;-75
2021/03/28 07:36:50;;;;;;;6.65;1.48;;;9.00;99.90;;;;;;6748240;88;20312;-74
2021/03/28 07:47:25;;;;;;;5.25;1.70;;;9.10;99.90;;;;;;6743960;88;20633;-76
2021/03/28 07:57:37;;;;;;;6.55;1.60;;;9.20;99.90;;;;;;6752994;76;20181;-75
2021/03/28 08:07:56;;;;;;;4.75;1.52;;;9.30;99.90;;;;;;6743664;88;20178;-76
2021/03/28 08:18:12;;;;;;;8.88;1.87;;;9.50;99.90;;;;;;6730711;88;20214;-76
2021/03/28 08:28:43;;;;;;;4.85;1.60;;;9.70;99.90;;;;;;6727477;88;20226;-76
2021/03/28 08:39:05;;;;;;;8.93;1.90;;;9.90;99.90;;;;;;6731403;88;20351;-76
2021/03/28 08:49:24;;;;;;;5.03;1.70;;;10.20;99.90;;;;;;6733038;88;20204;-77
2021/03/28 09:00:00;;;;;;;6.70;1.50;;;10.40;99.90;;;;;;6732593;88;20177;-76
2021/03/28 09:10:07;;;;;;;5.50;1.05;;;10.80;99.90;;;;;;6712213;88;20254;-77
2021/03/28 09:20:19;;;;;;;;;;;11.60;99.90;;;;;;6725004;88;20182;-77
2021/03/28 09:30:28;;;;;;;6.25;1.48;;;13.20;99.90;;;;;;6729008;88;20549;-77
2021/03/28 09:40:47;;;;;;;7.60;1.60;;;13.60;97.00;;;;;;6737489;88;20231;-76
2021/03/28 09:51:14;;;;;;;7.28;1.45;;;13.00;96.80;;;;;;6736911;88;20198;-76
2021/03/28 10:01:46;;;;;;;4.82;1.20;;;13.40;97.10;;;;;;6703079;88;20196;-76
2021/03/28 10:12:01;;;;;;;3.40;0.90;;;13.30;96.80;;;;;;6650994;88;20184;-75
2021/03/28 10:22:21;;;;;;;6.47;1.52;;;14.30;93.50;;;;;;6649199;89;20702;-76
2021/03/28 10:32:53;;;;;;;2.62;1.12;;;14.60;91.40;;;;;;6649693;89;20344;-75
2021/03/28 10:43:20;;;;;;;6.90;1.30;;;14.80;90.60;;;;;;6649622;89;20382;-77
2021/03/28 10:53:54;;;;;;;4.43;1.00;;;14.80;91.20;;;;;;6719211;88;20256;-76
2021/03/28 11:04:10;;;;;;;6.50;1.20;;;15.80;87.90;;;;;;6719209;88;20196;-76
2021/03/28 11:14:39;;;;;;;3.87;1.20;;;15.90;88.60;;;;;;6718641;88;20270;-76
2021/03/28 11:25:00;;;;;;;5.50;1.20;;;15.90;83.30;;;;;;6734846;88;20283;-76
2021/03/28 11:35:11;;;;;;;5.53;0.77;;;16.10;83.20;;;;;;6734125;88;20202;-76
2021/03/28 11:45:33;;;;;;;7.75;1.20;;;15.90;83.30;;;;;;6708784;88;20243;-80
2021/03/28 11:55:41;;;;;;;4.00;0.93;;;16.30;82.50;;;;;;6663184;88;20244;-76
2021/03/28 12:05:49;;;;;;;5.22;0.93;;;16.50;81.90;;;;;;6667770;88;20210;-77
2021/03/28 12:15:50;;;;;;;5.80;1.10;;;16.90;78.70;;;;;;6703095;88;20196;-78
2021/03/28 12:26:09;;;;;;;3.70;0.82;;;17.00;77.10;;;;;;6681637;88;20233;-76
2021/03/28 12:36:11;;;;;;;3.92;1.00;;;17.50;74.00;;;;;;6675988;88;20638;-77
2021/03/28 12:46:26;;;;;;;2.78;1.00;;;16.80;75.10;;;;;;6664714;88;20209;-77
2021/03/28 12:56:30;;;;;;;;;;;17.80;73.30;;;;;;6649930;89;20286;-77
2021/03/28 13:06:40;;;;;;;3.90;1.25;;;18.30;70.10;;;;;;6678552;88;20064;-77
2021/03/28 13:16:58;;;;;;;7.75;1.33;;;18.70;69.60;;;;;;6697544;88;20247;-77
2021/03/28 13:27:01;;;;;;;4.87;1.10;;;17.70;70.60;;;;;;6698310;88;20244;-77
2021/03/28 13:37:08;;;;;;;5.47;1.20;;;17.60;70.40;;;;;;6699213;88;20344;-77
2021/03/28 13:47:11;;;;;;;3.67;1.02;;;18.00;70.40;;;;;;6683634;88;20201;-77
2021/03/28 13:57:15;;;;;;;5.12;1.30;;;18.40;69.20;;;;;;6688027;88;20655;-77
2021/03/28 14:07:26;;;;;;;4.03;1.17;;;17.80;68.80;;;;;;6729877;88;20197;-77
2021/03/28 14:17:30;;;;;;;3.90;1.08;;;18.30;67.50;;;;;;6721411;88;20632;-77
2021/03/28 14:27:35;;;;;;;5.67;1.10;;;17.60;68.10;;;;;;6731759;88;20227;-77
2021/03/28 14:37:53;;;;;;;3.37;0.87;;;17.40;69.20;;;;;;6727976;88;20404;-77
2021/03/28 14:48:06;;;;;;;5.82;0.90;;;17.10;69.60;;;;;;6732586;88;20381;-77
2021/03/28 14:58:31;;;;;;;4.32;1.02;;;17.50;69.00;;;;;;6733500;88;20214;-77
2021/03/28 15:08:38;;;;;;;4.37;0.98;;;17.30;69.10;;;;;;6731113;88;20844;-76
2021/03/28 15:18:50;;;;;;;3.62;1.00;;;17.00;68.90;;;;;;6730850;88;20189;-76
2021/03/28 15:28:58;;;;;;;4.15;1.10;;;17.00;70.30;;;;;;6725159;88;20243;-76
2021/03/28 15:39:29;;;;;;;4.20;1.52;;;16.70;70.50;;;;;;6735030;88;20317;-75
2021/03/28 15:49:55;;;;;;;4.43;1.08;;;16.80;70.50;;;;;;6726995;88;20200;-75
2021/03/28 16:00:22;;;;;;;6.53;1.20;;;16.90;69.80;;;;;;6718430;88;20219;-75
2021/03/28 16:10:41;;;;;;;6.57;1.50;;;16.90;70.10;;;;;;6671055;88;20212;-76
2021/03/28 16:20:58;;;;;;;3.97;1.10;;;16.60;70.30;;;;;;6709268;88;20202;-75
2021/03/28 16:31:15;;;;;;;5.78;1.40;;;16.20;71.40;;;;;;6674178;88;20647;-75
2021/03/28 16:41:24;;;;;;;6.43;1.23;;;16.10;72.30;;;;;;6700775;88;20235;-77
2021/03/28 16:51:49;;;;;;;6.07;1.60;;;16.00;73.00;;;;;;6675146;88;20566;-76
2021/03/28 17:01:50;;;;;;;4.23;1.20;;;15.80;73.40;;;;;;6711123;88;20256;-76
2021/03/28 17:12:11;;;;;;;6.90;1.48;;;15.70;74.00;;;;;;6729072;88;20831;-77
2021/03/28 17:22:43;;;;;;;7.50;1.40;;;15.60;74.60;;;;;;6723214;88;20248;-77
2021/03/28 17:32:55;;;;;;;7.18;1.60;;;15.30;75.30;;;;;;6723676;88;20189;-77
2021/03/28 17:43:01;;;;;;;6.03;1.62;;;15.10;76.10;;;;;;6726560;88;20220;-77
2021/03/28 17:53:20;;;;;;;;;;;14.80;77.40;;;;;;6728236;88;20205;-77
2021/03/28 18:03:22;;;;;;;7.47;2.20;;;14.60;77.70;;;;;;6725884;88;20668;-77
2021/03/28 18:13:33;;;;;;;7.93;2.12;;;14.50;78.80;;;;;;6726306;88;20199;-77
2021/03/28 18:23:38;;;;;;;5.85;2.10;;;14.40;79.40;;;;;;6726320;88;20210;-77
2021/03/28 18:33:55;;;;;;;10.35;2.12;;;14.10;80.60;;;;;;6724003;88;20231;-76
2021/03/28 18:44:24;;;;;;;9.07;2.55;;;14.00;81.30;;;;;;6724202;88;20188;-77
2021/03/28 18:54:30;;;;;;;7.70;2.45;;;13.80;82.20;;;;;;6733486;88;20324;-76
2021/03/28 19:04:38;;;;;;;7.18;2.58;;;13.70;82.70;;;;;;6728969;88;20309;-76
2021/03/28 19:14:41;;;;;;;8.30;2.45;;;13.50;83.60;;;;;;6722684;88;20202;-76
2021/03/28 19:24:49;;;;;;;7.00;2.70;;;13.50;84.10;;;;;;6731504;88;20630;-77
2021/03/28 19:35:08;;;;;;;10.55;3.10;;;13.40;84.90;;;;;;6728966;88;20208;-76
2021/03/28 19:45:47;;;;;;;11.88;2.55;;;13.30;85.30;;;;;;6726411;88;20285;-77
2021/03/28 19:55:55;;;;;;;12.23;3.05;;;13.20;86.10;;;;;;6728370;88;20193;-77
2021/03/28 20:06:02;;;;;;;7.87;2.55;;;13.10;87.30;;;;;;6714578;88;20357;-77
2021/03/28 20:16:04;;;;;;;6.40;1.98;;;13.10;87.30;;;;;;6711456;88;20697;-77
2021/03/28 20:26:16;;;;;;;9.57;2.42;;;13.00;88.60;;;;;;6717404;88;20188;-76
2021/03/28 20:36:18;;;;;;;8.32;2.50;;;12.80;90.20;;;;;;6725074;88;20659;-77
2021/03/28 20:46:26;;;;;;;10.18;2.80;;;12.60;90.60;;;;;;6733884;88;20378;-77
2021/03/28 20:56:29;;;;;;;9.15;3.00;;;12.60;91.10;;;;;;6719223;88;20314;-76
2021/03/28 21:06:31;;;;;;;10.65;3.40;;;12.30;92.10;;;;;;6719994;88;20637;-77
2021/03/28 21:16:35;;;;;;;8.88;3.62;;;12.20;92.80;;;;;;6727975;88;20212;-77
2021/03/28 21:26:39;;;;;;;11.07;3.60;;;12.00;93.80;;;;;;6695270;88;20186;-76
2021/03/28 21:36:41;;;;;;;9.18;3.50;;;11.40;96.90;;;;;;6703728;88;20243;-77
2021/03/28 21:46:54;;;;;;;13.93;4.03;;;11.10;99.70;;;;;;6724505;88;20197;-77
2021/03/28 21:56:55;;;;;;;8.82;3.22;;;10.90;99.90;;;;;;6731387;88;20716;-77
2021/03/28 22:06:56;;;;;;;11.10;3.25;;;10.70;99.90;;;;;;6702977;88;20268;-77
2021/03/28 22:16:59;;;;;;;13.43;3.25;;;10.60;99.90;;;;;;6716990;88;20318;-76
2021/03/28 22:27:00;;;;;;;9.65;3.40;;;10.40;99.90;;;;;;6707341;88;20601;-77
2021/03/28 22:37:02;;;;;;;9.30;3.08;;;10.20;99.90;;;;;;6700819;88;20214;-77
2021/03/28 22:47:04;;;;;;;8.82;3.00;;;10.10;99.90;;;;;;6706045;88;20279;-77
2021/03/28 22:57:07;;;;;;;9.77;3.08;;;10.00;99.90;;;;;;6732199;88;20181;-77
2021/03/28 23:07:08;;;;;;;9.35;3.15;;;9.90;99.90;;;;;;6699200;88;20217;-77
2021/03/28 23:17:10;;;;;;;7.57;3.12;;;9.70;99.90;;;;;;6716094;88;20182;-77
2021/03/28 23:27:11;;;;;;;10.35;3.78;;;9.60;99.90;;;;;;6706786;88;20204;-77
2021/03/28 23:37:11;;;;;;;9.32;3.60;;;9.40;99.90;;;;;;6705462;88;20227;-77
2021/03/28 23:47:33;;;;;;;12.25;3.60;;;9.40;99.90;;;;;;6684428;88;20279;-77
2021/03/28 23:57:36;;;;;;;8.80;3.28;;;9.30;99.90;;;;;;6737985;88;20226;-77
